sensor_id;sensor_type;location;lat;lon;timestamp;pressure;altitude;pressure_sealevel;temperature;humidity
6395;BME280;3230;42.588;23.358;2023-04-27T00:01:00;90675.53;;;5.97;80.13
6395;BME280;3230;42.588;23.358;2023-04-27T00:03:25;90667.44;;;5.88;80.29
6395;BME280;3230;42.588;23.358;2023-04-27T00:05:51;90678.38;;;5.90;79.85
6395;BME280;3230;42.588;23.358;2023-04-27T00:08:16;90674.28;;;5.99;79.43
6395;BME280;3230;42.588;23.358;2023-04-27T00:10:42;90674.75;;;5.96;79.83
6395;BME280;3230;42.588;23.358;2023-04-27T00:13:07;90675.50;;;5.86;80.24
6395;BME280;3230;42.588;23.358;2023-04-27T00:15:33;90679.13;;;5.85;80.13
6395;BME280;3230;42.588;23.358;2023-04-27T00:17:58;90680.44;;;5.93;80.38
6395;BME280;3230;42.588;23.358;2023-04-27T00:20:23;90686.16;;;5.90;79.56
6395;BME280;3230;42.588;23.358;2023-04-27T00:22:49;90678.34;;;5.85;79.95
6395;BME280;3230;42.588;23.358;2023-04-27T00:25:14;90684.34;;;5.90;79.35
6395;BME280;3230;42.588;23.358;2023-04-27T00:27:40;90676.50;;;5.80;79.87
6395;BME280;3230;42.588;23.358;2023-04-27T00:30:06;90676.75;;;5.79;80.37
6395;BME280;3230;42.588;23.358;2023-04-27T00:32:32;90673.63;;;5.76;79.78
6395;BME280;3230;42.588;23.358;2023-04-27T00:34:57;90677.28;;;5.81;80.19
6395;BME280;3230;42.588;23.358;2023-04-27T00:37:23;90678.28;;;5.74;79.89
6395;BME280;3230;42.588;23.358;2023-04-27T00:39:48;90676.59;;;5.53;79.70
6395;BME280;3230;42.588;23.358;2023-04-27T00:42:13;90679.75;;;5.55;79.72
6395;BME280;3230;42.588;23.358;2023-04-27T00:44:43;90683.13;;;5.55;79.84
6395;BME280;3230;42.588;23.358;2023-04-27T00:47:09;90684.59;;;5.41;80.32
6395;BME280;3230;42.588;23.358;2023-04-27T00:49:35;90678.09;;;5.38;80.76
6395;BME280;3230;42.588;23.358;2023-04-27T00:52:01;90681.72;;;5.37;80.90
6395;BME280;3230;42.588;23.358;2023-04-27T00:54:26;90668.38;;;5.23;80.97
6395;BME280;3230;42.588;23.358;2023-04-27T00:56:52;90680.84;;;5.21;80.39
6395;BME280;3230;42.588;23.358;2023-04-27T00:59:18;90681.03;;;5.15;81.39
6395;BME280;3230;42.588;23.358;2023-04-27T01:01:47;90680.41;;;4.97;81.49
6395;BME280;3230;42.588;23.358;2023-04-27T01:04:13;90682.16;;;4.91;81.53
6395;BME280;3230;42.588;23.358;2023-04-27T01:06:38;90681.63;;;4.89;82.16
6395;BME280;3230;42.588;23.358;2023-04-27T01:09:04;90688.53;;;4.78;82.32
6395;BME280;3230;42.588;23.358;2023-04-27T01:11:31;90688.53;;;4.78;81.76
6395;BME280;3230;42.588;23.358;2023-04-27T01:13:57;90691.38;;;4.77;82.46
6395;BME280;3230;42.588;23.358;2023-04-27T01:16:25;90691.50;;;4.60;83.68
6395;BME280;3230;42.588;23.358;2023-04-27T01:18:51;90691.44;;;4.55;83.00
6395;BME280;3230;42.588;23.358;2023-04-27T01:21:16;90686.81;;;4.57;82.88
6395;BME280;3230;42.588;23.358;2023-04-27T01:23:42;90695.31;;;4.52;82.84
6395;BME280;3230;42.588;23.358;2023-04-27T01:26:07;90688.06;;;4.54;82.14
6395;BME280;3230;42.588;23.358;2023-04-27T01:28:32;90688.25;;;4.47;82.24
6395;BME280;3230;42.588;23.358;2023-04-27T01:30:58;90700.38;;;4.42;82.80
6395;BME280;3230;42.588;23.358;2023-04-27T01:33:23;90701.19;;;4.42;82.67
6395;BME280;3230;42.588;23.358;2023-04-27T01:35:48;90698.25;;;4.34;82.82
6395;BME280;3230;42.588;23.358;2023-04-27T01:38:14;90696.59;;;4.27;83.81
6395;BME280;3230;42.588;23.358;2023-04-27T01:40:39;90687.28;;;4.26;83.47
6395;BME280;3230;42.588;23.358;2023-04-27T01:43:05;90697.88;;;4.25;83.85
6395;BME280;3230;42.588;23.358;2023-04-27T01:45:30;90700.00;;;4.28;82.86
6395;BME280;3230;42.588;23.358;2023-04-27T01:47:55;90702.53;;;4.23;82.96
6395;BME280;3230;42.588;23.358;2023-04-27T01:50:21;90706.09;;;4.16;83.35
6395;BME280;3230;42.588;23.358;2023-04-27T01:52:46;90700.63;;;4.13;83.39
6395;BME280;3230;42.588;23.358;2023-04-27T01:55:12;90706.56;;;4.13;83.27
6395;BME280;3230;42.588;23.358;2023-04-27T01:57:37;90707.13;;;4.15;83.48
6395;BME280;3230;42.588;23.358;2023-04-27T02:00:03;90704.94;;;4.07;83.60
6395;BME280;3230;42.588;23.358;2023-04-27T02:02:29;90705.72;;;4.08;83.89
6395;BME280;3230;42.588;23.358;2023-04-27T02:04:55;90713.16;;;3.99;83.29
6395;BME280;3230;42.588;23.358;2023-04-27T02:07:20;90709.84;;;4.04;82.78
6395;BME280;3230;42.588;23.358;2023-04-27T02:09:46;90718.09;;;4.00;83.00
6395;BME280;3230;42.588;23.358;2023-04-27T02:12:11;90720.47;;;4.02;82.58
6395;BME280;3230;42.588;23.358;2023-04-27T02:14:37;90720.47;;;4.02;82.53
6395;BME280;3230;42.588;23.358;2023-04-27T02:17:02;90719.13;;;3.99;82.11
6395;BME280;3230;42.588;23.358;2023-04-27T02:19:27;90718.09;;;4.00;82.52
6395;BME280;3230;42.588;23.358;2023-04-27T02:21:53;90719.91;;;4.00;82.38
6395;BME280;3230;42.588;23.358;2023-04-27T02:24:18;90717.56;;;3.98;82.32
6395;BME280;3230;42.588;23.358;2023-04-27T02:26:43;90721.16;;;3.97;82.42
6395;BME280;3230;42.588;23.358;2023-04-27T02:29:09;90720.06;;;3.93;81.86
6395;BME280;3230;42.588;23.358;2023-04-27T02:31:34;90725.25;;;3.93;81.64
6395;BME280;3230;42.588;23.358;2023-04-27T02:33:59;90717.63;;;3.81;82.91
6395;BME280;3230;42.588;23.358;2023-04-27T02:36:25;90719.94;;;3.83;82.02
6395;BME280;3230;42.588;23.358;2023-04-27T02:38:52;90719.66;;;3.79;81.32
6395;BME280;3230;42.588;23.358;2023-04-27T02:41:17;90727.03;;;3.88;81.74
6395;BME280;3230;42.588;23.358;2023-04-27T02:43:43;90725.44;;;3.87;81.85
6395;BME280;3230;42.588;23.358;2023-04-27T02:46:08;90730.63;;;3.87;82.79
6395;BME280;3230;42.588;23.358;2023-04-27T02:48:33;90729.25;;;3.79;82.31
6395;BME280;3230;42.588;23.358;2023-04-27T02:51:02;90731.69;;;3.91;82.19
6395;BME280;3230;42.588;23.358;2023-04-27T02:53:28;90720.56;;;3.90;82.05
6395;BME280;3230;42.588;23.358;2023-04-27T02:55:53;90725.25;;;3.93;81.57
6395;BME280;3230;42.588;23.358;2023-04-27T02:58:19;90722.50;;;4.00;80.38
6395;BME280;3230;42.588;23.358;2023-04-27T03:00:44;90724.63;;;4.03;80.82
6395;BME280;3230;42.588;23.358;2023-04-27T03:03:10;90730.88;;;4.07;80.84
6395;BME280;3230;42.588;23.358;2023-04-27T03:05:35;90737.94;;;4.12;80.60
6395;BME280;3230;42.588;23.358;2023-04-27T03:08:01;90728.94;;;4.20;80.50
6395;BME280;3230;42.588;23.358;2023-04-27T03:10:26;90737.28;;;4.22;79.30
6395;BME280;3230;42.588;23.358;2023-04-27T03:12:52;90719.94;;;4.27;79.56
6395;BME280;3230;42.588;23.358;2023-04-27T03:15:17;90732.91;;;4.27;80.19
6395;BME280;3230;42.588;23.358;2023-04-27T03:17:42;90724.84;;;4.24;78.91
6395;BME280;3230;42.588;23.358;2023-04-27T03:20:08;90731.13;;;4.28;78.40
6395;BME280;3230;42.588;23.358;2023-04-27T03:22:37;90733.88;;;4.21;79.77
6395;BME280;3230;42.588;23.358;2023-04-27T03:25:03;90731.78;;;4.18;79.50
6395;BME280;3230;42.588;23.358;2023-04-27T03:27:29;90738.78;;;4.18;79.35
6395;BME280;3230;42.588;23.358;2023-04-27T03:29:54;90742.31;;;4.11;79.42
6395;BME280;3230;42.588;23.358;2023-04-27T03:32:20;90737.03;;;4.01;80.16
6395;BME280;3230;42.588;23.358;2023-04-27T03:34:45;90749.94;;;3.96;80.19
6395;BME280;3230;42.588;23.358;2023-04-27T03:37:11;90732.91;;;4.05;79.85
6395;BME280;3230;42.588;23.358;2023-04-27T03:39:37;90734.69;;;3.99;79.05
6395;BME280;3230;42.588;23.358;2023-04-27T03:42:03;90743.19;;;3.95;80.25
6395;BME280;3230;42.588;23.358;2023-04-27T03:44:28;90745.53;;;3.96;79.98
6395;BME280;3230;42.588;23.358;2023-04-27T03:46:55;90751.47;;;3.97;79.79
6395;BME280;3230;42.588;23.358;2023-04-27T03:49:21;90746.91;;;4.04;79.59
6395;BME280;3230;42.588;23.358;2023-04-27T03:51:47;90751.00;;;4.00;80.84
6395;BME280;3230;42.588;23.358;2023-04-27T03:54:12;90758.84;;;4.05;79.92
6395;BME280;3230;42.588;23.358;2023-04-27T03:56:37;90749.13;;;4.18;79.09
6395;BME280;3230;42.588;23.358;2023-04-27T03:59:03;90756.25;;;4.27;79.34
6395;BME280;3230;42.588;23.358;2023-04-27T04:01:29;90755.78;;;4.30;79.59
6395;BME280;3230;42.588;23.358;2023-04-27T04:03:55;90761.56;;;4.38;78.26
6395;BME280;3230;42.588;23.358;2023-04-27T04:06:20;90768.63;;;4.42;78.72
6395;BME280;3230;42.588;23.358;2023-04-27T04:08:45;90768.13;;;4.45;78.44
6395;BME280;3230;42.588;23.358;2023-04-27T04:11:11;90764.16;;;4.60;78.03
6395;BME280;3230;42.588;23.358;2023-04-27T04:13:39;90768.06;;;4.62;77.72
6395;BME280;3230;42.588;23.358;2023-04-27T04:16:08;90772.22;;;4.63;76.93
6395;BME280;3230;42.588;23.358;2023-04-27T04:18:34;90780.91;;;4.74;76.98
6395;BME280;3230;42.588;23.358;2023-04-27T04:21:00;90784.66;;;4.84;76.16
6395;BME280;3230;42.588;23.358;2023-04-27T04:23:26;90781.81;;;4.85;76.27
6395;BME280;3230;42.588;23.358;2023-04-27T04:25:52;90790.72;;;4.94;76.19
6395;BME280;3230;42.588;23.358;2023-04-27T04:28:18;90789.38;;;4.92;75.78
6395;BME280;3230;42.588;23.358;2023-04-27T04:30:44;90791.28;;;5.02;76.73
6395;BME280;3230;42.588;23.358;2023-04-27T04:33:09;90787.56;;;5.20;74.84
6395;BME280;3230;42.588;23.358;2023-04-27T04:35:39;90786.09;;;5.29;74.21
6395;BME280;3230;42.588;23.358;2023-04-27T04:38:06;90792.34;;;5.33;74.06
6395;BME280;3230;42.588;23.358;2023-04-27T04:40:31;90795.22;;;5.32;73.84
6395;BME280;3230;42.588;23.358;2023-04-27T04:42:57;90800.22;;;5.38;73.81
6395;BME280;3230;42.588;23.358;2023-04-27T04:45:22;90801.56;;;5.46;72.98
6395;BME280;3230;42.588;23.358;2023-04-27T04:47:48;90807.50;;;5.41;72.82
6395;BME280;3230;42.588;23.358;2023-04-27T04:50:14;90813.97;;;5.39;71.76
6395;BME280;3230;42.588;23.358;2023-04-27T04:52:39;90821.66;;;5.56;70.99
6395;BME280;3230;42.588;23.358;2023-04-27T04:55:05;90819.50;;;5.48;69.46
6395;BME280;3230;42.588;23.358;2023-04-27T04:57:31;90825.56;;;5.58;71.84
6395;BME280;3230;42.588;23.358;2023-04-27T04:59:56;90824.81;;;5.58;69.31
6395;BME280;3230;42.588;23.358;2023-04-27T05:02:22;90828.50;;;5.67;69.03
6395;BME280;3230;42.588;23.358;2023-04-27T05:04:47;90831.84;;;5.63;68.35
6395;BME280;3230;42.588;23.358;2023-04-27T05:07:13;90831.38;;;5.71;69.86
6395;BME280;3230;42.588;23.358;2023-04-27T05:09:39;90842.28;;;5.68;70.32
6395;BME280;3230;42.588;23.358;2023-04-27T05:12:05;90846.25;;;5.75;67.65
6395;BME280;3230;42.588;23.358;2023-04-27T05:14:31;90847.06;;;5.81;69.39
6395;BME280;3230;42.588;23.358;2023-04-27T05:16:56;90848.28;;;6.01;67.29
6395;BME280;3230;42.588;23.358;2023-04-27T05:19:22;90860.53;;;6.05;66.71
6395;BME280;3230;42.588;23.358;2023-04-27T05:21:48;90851.47;;;6.13;66.20
6395;BME280;3230;42.588;23.358;2023-04-27T05:24:14;90845.00;;;6.16;67.25
6395;BME280;3230;42.588;23.358;2023-04-27T05:26:41;90851.88;;;6.37;66.70
6395;BME280;3230;42.588;23.358;2023-04-27T05:29:06;90851.44;;;6.51;64.56
6395;BME280;3230;42.588;23.358;2023-04-27T05:31:32;90855.63;;;6.52;64.98
6395;BME280;3230;42.588;23.358;2023-04-27T05:33:57;90855.16;;;6.65;63.54
6395;BME280;3230;42.588;23.358;2023-04-27T05:36:23;90861.88;;;6.61;64.97
6395;BME280;3230;42.588;23.358;2023-04-27T05:38:48;90858.53;;;6.66;64.74
6395;BME280;3230;42.588;23.358;2023-04-27T05:41:14;90856.94;;;6.60;64.71
6395;BME280;3230;42.588;23.358;2023-04-27T05:43:39;90868.50;;;6.84;64.87
6395;BME280;3230;42.588;23.358;2023-04-27T05:46:05;90864.28;;;6.73;63.95
6395;BME280;3230;42.588;23.358;2023-04-27T05:48:30;90867.53;;;6.96;62.92
6395;BME280;3230;42.588;23.358;2023-04-27T05:51:00;90870.88;;;6.91;65.40
6395;BME280;3230;42.588;23.358;2023-04-27T05:53:26;90871.22;;;7.10;64.93
6395;BME280;3230;42.588;23.358;2023-04-27T05:55:51;90861.41;;;7.48;62.98
6395;BME280;3230;42.588;23.358;2023-04-27T05:58:17;90869.75;;;7.50;63.27
6395;BME280;3230;42.588;23.358;2023-04-27T06:00:42;90864.56;;;7.76;61.21
6395;BME280;3230;42.588;23.358;2023-04-27T06:03:07;90865.34;;;7.77;60.65
6395;BME280;3230;42.588;23.358;2023-04-27T06:05:33;90869.25;;;7.74;61.27
6395;BME280;3230;42.588;23.358;2023-04-27T06:07:58;90862.22;;;7.64;61.79
6395;BME280;3230;42.588;23.358;2023-04-27T06:10:24;90870.81;;;7.80;60.09
6395;BME280;3230;42.588;23.358;2023-04-27T06:12:49;90867.97;;;8.03;58.78
6395;BME280;3230;42.588;23.358;2023-04-27T06:15:15;90879.44;;;8.53;56.82
6395;BME280;3230;42.588;23.358;2023-04-27T06:17:41;90867.16;;;8.54;56.59
6395;BME280;3230;42.588;23.358;2023-04-27T06:20:08;90871.59;;;8.53;53.73
6395;BME280;3230;42.588;23.358;2023-04-27T06:22:37;90873.13;;;8.75;56.44
6395;BME280;3230;42.588;23.358;2023-04-27T06:25:06;90869.91;;;8.93;53.76
6395;BME280;3230;42.588;23.358;2023-04-27T06:27:32;90869.63;;;9.05;53.30
6395;BME280;3230;42.588;23.358;2023-04-27T06:29:58;90867.44;;;9.28;53.17
6395;BME280;3230;42.588;23.358;2023-04-27T06:32:23;90873.72;;;9.22;50.70
6395;BME280;3230;42.588;23.358;2023-04-27T06:34:49;90875.50;;;9.37;49.10
6395;BME280;3230;42.588;23.358;2023-04-27T06:37:15;90870.16;;;9.57;49.17
6395;BME280;3230;42.588;23.358;2023-04-27T06:39:42;90872.66;;;9.78;51.04
6395;BME280;3230;42.588;23.358;2023-04-27T06:42:08;90874.09;;;9.95;48.73
6395;BME280;3230;42.588;23.358;2023-04-27T06:44:33;90875.41;;;10.27;47.88
6395;BME280;3230;42.588;23.358;2023-04-27T06:46:58;90881.25;;;10.53;46.73
6395;BME280;3230;42.588;23.358;2023-04-27T06:49:24;90875.97;;;11.31;43.57
6395;BME280;3230;42.588;23.358;2023-04-27T06:51:49;90871.69;;;11.97;42.85
6395;BME280;3230;42.588;23.358;2023-04-27T06:54:15;90863.81;;;11.97;42.44
6395;BME280;3230;42.588;23.358;2023-04-27T06:56:40;90873.50;;;12.35;41.88
6395;BME280;3230;42.588;23.358;2023-04-27T06:59:07;90876.91;;;12.96;40.40
6395;BME280;3230;42.588;23.358;2023-04-27T07:01:32;90873.59;;;13.19;40.24
6395;BME280;3230;42.588;23.358;2023-04-27T07:03:58;90873.00;;;13.36;38.13
6395;BME280;3230;42.588;23.358;2023-04-27T07:06:23;90876.06;;;13.94;39.32
6395;BME280;3230;42.588;23.358;2023-04-27T07:08:50;90872.84;;;14.42;37.91
6395;BME280;3230;42.588;23.358;2023-04-27T07:11:15;90874.00;;;14.73;37.20
6395;BME280;3230;42.588;23.358;2023-04-27T07:13:41;90864.72;;;15.15;35.27
6395;BME280;3230;42.588;23.358;2023-04-27T07:16:07;90868.16;;;15.25;35.10
6395;BME280;3230;42.588;23.358;2023-04-27T07:18:33;90872.38;;;16.01;36.62
6395;BME280;3230;42.588;23.358;2023-04-27T07:20:58;90875.06;;;17.10;34.10
6395;BME280;3230;42.588;23.358;2023-04-27T07:23:24;90881.44;;;18.83;30.15
6395;BME280;3230;42.588;23.358;2023-04-27T07:25:49;90871.88;;;19.74;29.64
6395;BME280;3230;42.588;23.358;2023-04-27T07:28:16;90872.63;;;20.00;29.21
6395;BME280;3230;42.588;23.358;2023-04-27T07:30:41;90868.47;;;20.96;28.37
6395;BME280;3230;42.588;23.358;2023-04-27T07:33:08;90877.47;;;21.68;27.18
6395;BME280;3230;42.588;23.358;2023-04-27T07:35:34;90869.75;;;22.50;26.60
6395;BME280;3230;42.588;23.358;2023-04-27T07:38:00;90881.09;;;23.25;25.51
6395;BME280;3230;42.588;23.358;2023-04-27T07:40:29;90878.63;;;24.36;23.77
6395;BME280;3230;42.588;23.358;2023-04-27T07:42:55;90876.16;;;23.97;24.40
6395;BME280;3230;42.588;23.358;2023-04-27T07:45:22;90881.63;;;22.36;25.08
6395;BME280;3230;42.588;23.358;2023-04-27T07:47:48;90879.59;;;21.78;25.84
6395;BME280;3230;42.588;23.358;2023-04-27T07:50:13;90873.47;;;22.29;26.29
6395;BME280;3230;42.588;23.358;2023-04-27T07:52:43;90870.22;;;23.38;24.80
6395;BME280;3230;42.588;23.358;2023-04-27T07:55:08;90879.38;;;24.10;24.95
6395;BME280;3230;42.588;23.358;2023-04-27T07:57:34;90883.50;;;24.61;22.68
6395;BME280;3230;42.588;23.358;2023-04-27T07:59:59;90887.03;;;24.96;23.51
6395;BME280;3230;42.588;23.358;2023-04-27T08:02:26;90874.97;;;24.21;23.30
6395;BME280;3230;42.588;23.358;2023-04-27T08:04:55;90888.44;;;24.55;22.49
6395;BME280;3230;42.588;23.358;2023-04-27T08:07:21;90881.81;;;24.76;24.16
6395;BME280;3230;42.588;23.358;2023-04-27T08:09:49;90889.31;;;25.31;21.14
6395;BME280;3230;42.588;23.358;2023-04-27T08:12:16;90886.03;;;25.11;21.66
6395;BME280;3230;42.588;23.358;2023-04-27T08:14:41;90890.00;;;24.87;22.34
6395;BME280;3230;42.588;23.358;2023-04-27T08:17:07;90878.31;;;24.15;22.80
6395;BME280;3230;42.588;23.358;2023-04-27T08:19:32;90889.34;;;22.77;24.18
6395;BME280;3230;42.588;23.358;2023-04-27T08:21:58;90894.94;;;23.11;24.52
6395;BME280;3230;42.588;23.358;2023-04-27T08:24:23;90885.69;;;22.86;25.52
6395;BME280;3230;42.588;23.358;2023-04-27T08:26:49;90888.59;;;24.13;23.11
6395;BME280;3230;42.588;23.358;2023-04-27T08:29:14;90885.22;;;24.73;24.05
6395;BME280;3230;42.588;23.358;2023-04-27T08:31:40;90889.28;;;24.33;23.29
6395;BME280;3230;42.588;23.358;2023-04-27T08:34:06;90891.81;;;23.48;23.69
6395;BME280;3230;42.588;23.358;2023-04-27T08:36:31;90895.81;;;24.35;21.92
6395;BME280;3230;42.588;23.358;2023-04-27T08:38:56;90892.03;;;22.97;23.58
6395;BME280;3230;42.588;23.358;2023-04-27T08:41:22;90878.97;;;21.21;25.70
6395;BME280;3230;42.588;23.358;2023-04-27T08:43:50;90885.66;;;20.58;26.47
6395;BME280;3230;42.588;23.358;2023-04-27T08:46:21;90884.09;;;20.28;26.89
6395;BME280;3230;42.588;23.358;2023-04-27T08:48:51;90901.91;;;18.28;28.96
6395;BME280;3230;42.588;23.358;2023-04-27T08:51:18;90893.47;;;17.75;30.26
6395;BME280;3230;42.588;23.358;2023-04-27T08:53:55;90895.28;;;17.23;31.09
6395;BME280;3230;42.588;23.358;2023-04-27T08:56:22;90889.41;;;15.69;34.16
6395;BME280;3230;42.588;23.358;2023-04-27T08:58:49;90886.38;;;16.37;32.74
6395;BME280;3230;42.588;23.358;2023-04-27T09:01:15;90884.94;;;15.87;32.58
6395;BME280;3230;42.588;23.358;2023-04-27T09:03:41;90889.22;;;15.56;36.60
6395;BME280;3230;42.588;23.358;2023-04-27T09:06:07;90892.81;;;15.69;33.46
6395;BME280;3230;42.588;23.358;2023-04-27T09:08:49;90873.13;;;14.63;34.44
6395;BME280;3230;42.588;23.358;2023-04-27T09:11:27;90888.00;;;14.82;34.99
6395;BME280;3230;42.588;23.358;2023-04-27T09:13:53;90878.19;;;14.51;35.45
6395;BME280;3230;42.588;23.358;2023-04-27T09:16:23;90877.31;;;14.64;36.01
6395;BME280;3230;42.588;23.358;2023-04-27T09:18:48;90877.09;;;14.75;35.80
6395;BME280;3230;42.588;23.358;2023-04-27T09:21:22;90880.56;;;14.84;35.67
6395;BME280;3230;42.588;23.358;2023-04-27T09:23:47;90873.59;;;15.28;34.84
6395;BME280;3230;42.588;23.358;2023-04-27T09:26:21;90882.19;;;15.43;35.82
6395;BME280;3230;42.588;23.358;2023-04-27T09:28:49;90872.38;;;16.10;32.84
6395;BME280;3230;42.588;23.358;2023-04-27T09:31:16;90888.56;;;16.17;35.98
6395;BME280;3230;42.588;23.358;2023-04-27T09:33:43;90875.22;;;15.47;32.11
6395;BME280;3230;42.588;23.358;2023-04-27T09:36:08;90875.22;;;15.47;32.91
6395;BME280;3230;42.588;23.358;2023-04-27T09:38:34;90860.75;;;14.95;34.03
6395;BME280;3230;42.588;23.358;2023-04-27T09:41:00;90859.47;;;14.84;34.09
6395;BME280;3230;42.588;23.358;2023-04-27T09:43:26;90859.81;;;14.91;32.53
6395;BME280;3230;42.588;23.358;2023-04-27T09:45:54;90860.66;;;15.09;34.04
6395;BME280;3230;42.588;23.358;2023-04-27T09:48:21;90860.31;;;15.02;35.28
6395;BME280;3230;42.588;23.358;2023-04-27T09:50:48;90847.34;;;14.83;36.79
6395;BME280;3230;42.588;23.358;2023-04-27T09:53:17;90852.75;;;15.09;35.07
6395;BME280;3230;42.588;23.358;2023-04-27T09:55:54;90849.41;;;14.86;37.42
6395;BME280;3230;42.588;23.358;2023-04-27T09:58:29;90841.09;;;14.70;35.46
6395;BME280;3230;42.588;23.358;2023-04-27T10:01:53;90849.13;;;14.19;34.75
6395;BME280;3230;42.588;23.358;2023-04-27T10:09:39;90854.47;;;14.74;34.79
6395;BME280;3230;42.588;23.358;2023-04-27T10:15:12;90849.19;;;14.51;33.47
6395;BME280;3230;42.588;23.358;2023-04-27T10:17:37;90847.75;;;14.45;33.70
6395;BME280;3230;42.588;23.358;2023-04-27T10:20:05;90841.09;;;14.47;34.30
6395;BME280;3230;42.588;23.358;2023-04-27T10:25:29;90838.25;;;14.35;33.42
6395;BME280;3230;42.588;23.358;2023-04-27T10:28:02;90843.13;;;14.05;33.31
6395;BME280;3230;42.588;23.358;2023-04-27T10:30:32;90848.09;;;14.06;33.19
6395;BME280;3230;42.588;23.358;2023-04-27T10:33:06;90844.56;;;14.11;34.21
6395;BME280;3230;42.588;23.358;2023-04-27T10:38:10;90837.06;;;14.50;34.75
6395;BME280;3230;42.588;23.358;2023-04-27T10:40:38;90834.28;;;14.01;34.91
6395;BME280;3230;42.588;23.358;2023-04-27T10:43:13;90843.63;;;14.61;36.66
6395;BME280;3230;42.588;23.358;2023-04-27T10:45:39;90841.75;;;15.25;37.62
6395;BME280;3230;42.588;23.358;2023-04-27T10:48:06;90847.22;;;14.88;34.24
6395;BME280;3230;42.588;23.358;2023-04-27T10:50:33;90850.88;;;15.10;36.58
6395;BME280;3230;42.588;23.358;2023-04-27T10:52:59;90839.75;;;14.81;32.58
6395;BME280;3230;42.588;23.358;2023-04-27T10:55:26;90849.25;;;14.91;33.85
6395;BME280;3230;42.588;23.358;2023-04-27T10:57:53;90839.88;;;15.16;32.65
6395;BME280;3230;42.588;23.358;2023-04-27T11:00:24;90842.00;;;14.65;33.83
6395;BME280;3230;42.588;23.358;2023-04-27T11:02:50;90835.94;;;14.42;34.33
6395;BME280;3230;42.588;23.358;2023-04-27T11:05:24;90830.94;;;14.86;35.38
6395;BME280;3230;42.588;23.358;2023-04-27T11:08:03;90844.72;;;14.83;32.90
6395;BME280;3230;42.588;23.358;2023-04-27T11:10:29;90833.50;;;14.77;34.60
6395;BME280;3230;42.588;23.358;2023-04-27T11:12:55;90835.41;;;14.85;31.58
6395;BME280;3230;42.588;23.358;2023-04-27T11:15:21;90830.13;;;14.85;33.16
6395;BME280;3230;42.588;23.358;2023-04-27T11:17:46;90835.19;;;14.19;33.99
6395;BME280;3230;42.588;23.358;2023-04-27T11:20:12;90825.00;;;14.26;33.55
6395;BME280;3230;42.588;23.358;2023-04-27T11:22:44;90834.66;;;14.85;34.07
6395;BME280;3230;42.588;23.358;2023-04-27T11:25:10;90845.59;;;15.10;32.84
6395;BME280;3230;42.588;23.358;2023-04-27T11:27:38;90828.94;;;15.41;33.96
6395;BME280;3230;42.588;23.358;2023-04-27T11:30:17;90843.88;;;15.54;32.96
6395;BME280;3230;42.588;23.358;2023-04-27T11:32:42;90842.63;;;15.60;31.04
6395;BME280;3230;42.588;23.358;2023-04-27T11:35:08;90823.34;;;15.60;31.66
6395;BME280;3230;42.588;23.358;2023-04-27T11:37:34;90844.78;;;15.41;31.51
6395;BME280;3230;42.588;23.358;2023-04-27T11:39:59;90844.00;;;15.49;33.19
6395;BME280;3230;42.588;23.358;2023-04-27T11:42:27;90845.63;;;15.85;30.08
6395;BME280;3230;42.588;23.358;2023-04-27T11:44:53;90849.56;;;14.90;30.29
6395;BME280;3230;42.588;23.358;2023-04-27T11:47:20;90842.00;;;14.65;32.76
6395;BME280;3230;42.588;23.358;2023-04-27T11:49:50;90842.66;;;15.11;32.62
6395;BME280;3230;42.588;23.358;2023-04-27T11:52:17;90847.78;;;15.08;31.92
6395;BME280;3230;42.588;23.358;2023-04-27T11:54:49;90847.84;;;14.85;32.57
6395;BME280;3230;42.588;23.358;2023-04-27T11:57:15;90847.03;;;14.84;33.03
6395;BME280;3230;42.588;23.358;2023-04-27T11:59:41;90851.25;;;14.85;34.91
6395;BME280;3230;42.588;23.358;2023-04-27T12:02:07;90842.28;;;14.95;34.64
6395;BME280;3230;42.588;23.358;2023-04-27T12:04:33;90853.16;;;15.43;35.06
6395;BME280;3230;42.588;23.358;2023-04-27T12:07:00;90861.44;;;15.10;32.90
6395;BME280;3230;42.588;23.358;2023-04-27T12:09:26;90862.81;;;15.07;33.42
6395;BME280;3230;42.588;23.358;2023-04-27T12:11:53;90859.44;;;15.15;33.95
6395;BME280;3230;42.588;23.358;2023-04-27T12:14:19;90860.94;;;14.22;33.53
6395;BME280;3230;42.588;23.358;2023-04-27T12:16:44;90861.63;;;14.14;34.10
6395;BME280;3230;42.588;23.358;2023-04-27T12:19:10;90857.31;;;13.95;34.92
6395;BME280;3230;42.588;23.358;2023-04-27T12:21:35;90867.81;;;13.72;33.94
6395;BME280;3230;42.588;23.358;2023-04-27T12:24:01;90856.81;;;13.70;36.20
6395;BME280;3230;42.588;23.358;2023-04-27T12:26:26;90868.28;;;13.88;36.54
6395;BME280;3230;42.588;23.358;2023-04-27T12:28:53;90866.09;;;13.68;35.28
6395;BME280;3230;42.588;23.358;2023-04-27T12:31:18;90863.88;;;13.47;35.77
6395;BME280;3230;42.588;23.358;2023-04-27T12:33:48;90867.47;;;13.23;37.04
6395;BME280;3230;42.588;23.358;2023-04-27T12:36:15;90864.44;;;13.02;37.45
6395;BME280;3230;42.588;23.358;2023-04-27T12:38:41;90862.22;;;13.09;37.97
6395;BME280;3230;42.588;23.358;2023-04-27T12:41:06;90870.19;;;13.18;36.65
6395;BME280;3230;42.588;23.358;2023-04-27T12:43:31;90859.38;;;13.34;36.91
6395;BME280;3230;42.588;23.358;2023-04-27T12:45:57;90870.97;;;13.05;37.46
6395;BME280;3230;42.588;23.358;2023-04-27T12:48:22;90882.38;;;13.28;37.77
6395;BME280;3230;42.588;23.358;2023-04-27T12:50:48;90870.66;;;13.34;36.91
6395;BME280;3230;42.588;23.358;2023-04-27T12:53:13;90877.50;;;13.49;37.10
6395;BME280;3230;42.588;23.358;2023-04-27T12:55:38;90877.13;;;13.56;36.89
6395;BME280;3230;42.588;23.358;2023-04-27T12:58:04;90881.41;;;13.52;37.09
6395;BME280;3230;42.588;23.358;2023-04-27T13:00:30;90877.13;;;13.42;36.69
6395;BME280;3230;42.588;23.358;2023-04-27T13:02:55;90879.94;;;13.59;35.25
6395;BME280;3230;42.588;23.358;2023-04-27T13:05:22;90871.66;;;13.52;35.78
6395;BME280;3230;42.588;23.358;2023-04-27T13:07:47;90876.72;;;13.49;35.74
6395;BME280;3230;42.588;23.358;2023-04-27T13:10:13;90880.53;;;13.42;36.15
6395;BME280;3230;42.588;23.358;2023-04-27T13:12:39;90879.06;;;13.36;36.67
6395;BME280;3230;42.588;23.358;2023-04-27T13:15:04;90873.56;;;13.74;37.88
6395;BME280;3230;42.588;23.358;2023-04-27T13:17:32;90868.72;;;13.26;36.08
6395;BME280;3230;42.588;23.358;2023-04-27T13:19:57;90871.84;;;13.00;37.09
6395;BME280;3230;42.588;23.358;2023-04-27T13:22:22;90870.78;;;12.87;39.32
6395;BME280;3230;42.588;23.358;2023-04-27T13:24:48;90870.19;;;12.90;37.13
6395;BME280;3230;42.588;23.358;2023-04-27T13:27:13;90875.06;;;13.11;38.64